ADDS METAR Data INFO
IDs: Format: Raw Decoded Include TAF

Data at: 1718 UTC 23 Oct 2017

KFAY 231653Z 14015G21KT 10SM FEW032 OVC045 27/19 A3004 RMK AO2 SLP166 T02670189
KFAY 231553Z 15010KT 10SM BKN036 OVC110 25/20 A3008 RMK AO2 SLP178 T02500200
KFAY 231453Z 14008KT 10SM BKN038 OVC047 22/20 A3010 RMK AO2 SLP187 T02170200 58016
KFAY 231353Z 11007KT 9SM BKN039 OVC050 20/19 A3013 RMK AO2 SLP196 T02000194
KFAY 231253Z 11007KT 10SM OVC035 19/19 A3014 RMK AO2 SLP200 T01940194
KFAY 231153Z 11009KT 3SM BR SCT029 BKN036 OVC049 19/19 A3015 RMK AO2 RAB02E25B35E45 SLP202 P0000 60000 T01890189 10200 20172 55006
KFAY 231150Z 10008KT 3SM BR FEW027 BKN036 OVC055 19/19 A3014 RMK AO2 RAB02E25B35E45 P0000
KFAY 231141Z 11008KT 2 1/2SM -RA BR SCT029 BKN036 OVC048 19/19 A3015 RMK AO2 RAB02E25B35 P0000 T01890189
KFAY 231127Z 12008KT 4SM BR SCT021 BKN039 OVC050 19/19 A3015 RMK AO2 RAB02E25 P0000 T01890189
KFAY 231118Z 11008KT 5SM -RA BR SCT021 BKN029 OVC048 19/18 A3015 RMK AO2 RAB02 P0000 T01940183
KFAY 231107Z 15005KT 6SM -RA BR SCT023 OVC030 19/18 A3016 RMK AO2 RAB02 P0000 T01940183
KFAY 231053Z 13003KT 10SM FEW023 OVC029 19/18 A3016 RMK AO2 SLP205 T01940183
KFAY 231037Z AUTO 12006KT 10SM BKN029 OVC037 20/18 A3015 RMK AO2 T02000183
KFAY 230953Z AUTO 12006KT 10SM BKN031 OVC044 19/18 A3016 RMK AO2 SLP207 T01940178
KFAY 230853Z AUTO 09005KT 10SM BKN033 OVC050 19/18 A3017 RMK AO2 SLP210 T01890178 58013
KFAY 230753Z 10006KT 10SM FEW033 OVC055 19/18 A3018 RMK AO2 SLP214 T01890178
KFAY 230653Z 09004KT 10SM OVC060 18/18 A3020 RMK AO2 SLP220 T01830178
KFAY 230553Z 10006KT 10SM CLR 18/17 A3021 RMK AO2 SLP224 T01780167 10211 20172 56020
KFAY 230453Z 10006KT 10SM CLR 18/17 A3023 RMK AO2 SLP230 T01830167 402780117
KFAY 230353Z 09006KT 10SM CLR 17/16 A3025 RMK AO2 SLP237 T01720161
KFAY 230253Z 11004KT 10SM CLR 18/17 A3027 RMK AO2 SLP244 T01830167 51006
KFAY 230153Z 11004KT 10SM CLR 19/17 A3027 RMK AO2 SLP245 T01890167
KFAY 230053Z 13007KT 10SM CLR 21/17 A3027 RMK AO2 SLP244 T02110167
KFAY 222353Z 10008KT 10SM CLR 21/17 A3025 RMK AO2 SLP238 T02060167 10278 20200 52005
KFAY 222253Z 11003KT 10SM CLR 22/17 A3025 RMK AO2 SLP238 T02220167
KFAY 222153Z 13006KT 10SM CLR 26/16 A3024 RMK AO2 SLP233 T02560156
KFAY 222053Z 12006KT 10SM FEW050 25/16 A3024 RMK AO2 SLP233 T02500161 56018
KFAY 221953Z 12007KT 10SM FEW050 26/16 A3025 RMK AO2 SLP236 T02560161
KFAY 221853Z 14006KT 10SM CLR 26/15 A3027 RMK AO2 SLP244 T02560150
KFAY 221753Z 20004KT 10SM SCT046 26/16 A3029 RMK AO2 SLP251 T02610156 10267 20122 58022
KFAY 221653Z 06003KT 10SM CLR 26/15 A3032 RMK AO2 SLP263 T02610150
KFAY 221553Z VRB03KT 10SM CLR 24/16 A3035 RMK AO2 SLP271 T02390156
KFAY 221453Z VRB03KT 10SM CLR 22/15 A3036 RMK AO2 SLP274 T02170150 50007
KFAY 221353Z 04003KT 10SM CLR 18/14 A3036 RMK AO2 SLP275 T01780144
KFAY 221302Z 03005KT 4SM BR CLR 14/14 A3035 RMK AO2 T01440139
KFAY 221253Z 02005KT 2 1/2SM BR CLR 14/13 A3035 RMK AO2 SLP273 T01390133
KFAY 221224Z 02005KT 2 1/2SM BR CLR 13/13 A3035 RMK AO2 T01330133
KFAY 221153Z AUTO 02005KT 1 1/4SM BR CLR 12/12 A3033 RMK AO2 SLP266 T01220122 10139 20117 53006
KFAY 221140Z AUTO 02005KT 1 1/4SM BR CLR 12/12 A3033 RMK AO2 T01220122
KFAY 221122Z AUTO 01005KT 2 1/2SM BR CLR 12/12 A3033 RMK AO2 T01170117
KFAY 221106Z AUTO 01004KT 1SM BR CLR 12/12 A3033 RMK AO2 T01170117 RVRNO
KFAY 221053Z AUTO 01006KT 2 1/2SM BR CLR 12/12 A3032 RMK AO2 SLP263 T01220122
KFAY 221049Z AUTO 02006KT 2 1/2SM BR CLR 12/12 A3032 RMK AO2
KFAY 220953Z AUTO 02006KT 3SM BR CLR 12/12 A3031 RMK AO2 SLP260 T01220122
KFAY 220853Z AUTO 01004KT 6SM BR CLR 12/12 A3031 RMK AO2 SLP258 T01170117 55003
KFAY 220753Z AUTO 02003KT 10SM CLR 13/13 A3031 RMK AO2 SLP257 T01280128
KFAY 220653Z 03003KT 8SM CLR 13/13 A3031 RMK AO2 SLP259 T01330128
KFAY 220553Z 00000KT 10SM CLR 14/13 A3032 RMK AO2 SLP261 T01390133 10194 20133 58003